sensor_id;sensor_type;location;lat;lon;timestamp;P1;durP1;ratioP1;P2;durP2;ratioP2
36797;SDS011;22748;8.426;99.512;2022-08-20T00:01:14;18.02;;;11.20;;
36797;SDS011;22748;8.426;99.512;2022-08-20T00:03:44;15.52;;;10.52;;
36797;SDS011;22748;8.426;99.512;2022-08-20T00:06:16;12.82;;;9.05;;
36797;SDS011;22748;8.426;99.512;2022-08-20T00:08:50;16.50;;;9.80;;
36797;SDS011;22748;8.426;99.512;2022-08-20T00:11:22;13.65;;;9.52;;
36797;SDS011;22748;8.426;99.512;2022-08-20T00:13:56;16.02;;;10.52;;
36797;SDS011;22748;8.426;99.512;2022-08-20T00:16:28;21.73;;;14.07;;
36797;SDS011;22748;8.426;99.512;2022-08-20T00:18:59;22.85;;;12.25;;
36797;SDS011;22748;8.426;99.512;2022-08-20T00:21:34;20.52;;;10.60;;
36797;SDS011;22748;8.426;99.512;2022-08-20T00:24:04;15.63;;;10.10;;
36797;SDS011;22748;8.426;99.512;2022-08-20T00:26:36;16.00;;;9.68;;
36797;SDS011;22748;8.426;99.512;2022-08-20T00:31:36;16.30;;;11.27;;
36797;SDS011;22748;8.426;99.512;2022-08-20T00:34:06;15.75;;;9.20;;
36797;SDS011;22748;8.426;99.512;2022-08-20T00:36:37;16.50;;;9.10;;
36797;SDS011;22748;8.426;99.512;2022-08-20T00:39:08;10.93;;;7.85;;
36797;SDS011;22748;8.426;99.512;2022-08-20T00:41:40;16.98;;;9.05;;
36797;SDS011;22748;8.426;99.512;2022-08-20T00:44:10;14.55;;;8.75;;
36797;SDS011;22748;8.426;99.512;2022-08-20T00:46:43;18.25;;;8.70;;
36797;SDS011;22748;8.426;99.512;2022-08-20T00:49:17;19.02;;;8.63;;
36797;SDS011;22748;8.426;99.512;2022-08-20T00:52:00;11.35;;;7.97;;
36797;SDS011;22748;8.426;99.512;2022-08-20T00:54:34;11.18;;;7.30;;
36797;SDS011;22748;8.426;99.512;2022-08-20T00:57:07;8.75;;;6.75;;
36797;SDS011;22748;8.426;99.512;2022-08-20T00:59:40;20.65;;;8.05;;
36797;SDS011;22748;8.426;99.512;2022-08-20T01:02:13;41.65;;;9.93;;
36797;SDS011;22748;8.426;99.512;2022-08-20T01:04:44;16.33;;;7.78;;
36797;SDS011;22748;8.426;99.512;2022-08-20T01:07:19;16.42;;;8.77;;
36797;SDS011;22748;8.426;99.512;2022-08-20T01:09:57;10.85;;;8.13;;
36797;SDS011;22748;8.426;99.512;2022-08-20T01:12:29;15.18;;;8.38;;
36797;SDS011;22748;8.426;99.512;2022-08-20T01:15:00;13.52;;;7.53;;
36797;SDS011;22748;8.426;99.512;2022-08-20T01:17:33;9.40;;;5.50;;
36797;SDS011;22748;8.426;99.512;2022-08-20T01:20:10;25.85;;;7.25;;
36797;SDS011;22748;8.426;99.512;2022-08-20T01:22:45;33.70;;;7.78;;
36797;SDS011;22748;8.426;99.512;2022-08-20T01:25:41;28.55;;;7.82;;
36797;SDS011;22748;8.426;99.512;2022-08-20T01:28:15;26.10;;;8.68;;
36797;SDS011;22748;8.426;99.512;2022-08-20T01:30:49;19.13;;;10.18;;
36797;SDS011;22748;8.426;99.512;2022-08-20T01:33:19;19.10;;;9.48;;
36797;SDS011;22748;8.426;99.512;2022-08-20T01:35:53;12.95;;;5.93;;
36797;SDS011;22748;8.426;99.512;2022-08-20T01:38:25;8.98;;;6.47;;
36797;SDS011;22748;8.426;99.512;2022-08-20T01:43:56;10.88;;;7.05;;
36797;SDS011;22748;8.426;99.512;2022-08-20T01:46:27;9.88;;;5.63;;
36797;SDS011;22748;8.426;99.512;2022-08-20T01:48:58;8.77;;;5.55;;
36797;SDS011;22748;8.426;99.512;2022-08-20T01:51:38;8.18;;;5.13;;
36797;SDS011;22748;8.426;99.512;2022-08-20T01:54:12;9.32;;;4.90;;
36797;SDS011;22748;8.426;99.512;2022-08-20T01:56:58;5.68;;;3.97;;
36797;SDS011;22748;8.426;99.512;2022-08-20T01:59:35;6.00;;;2.85;;
36797;SDS011;22748;8.426;99.512;2022-08-20T02:02:08;8.52;;;3.88;;
36797;SDS011;22748;8.426;99.512;2022-08-20T02:04:41;8.32;;;3.38;;
36797;SDS011;22748;8.426;99.512;2022-08-20T02:07:14;8.85;;;3.20;;
36797;SDS011;22748;8.426;99.512;2022-08-20T02:09:50;3.75;;;2.58;;
36797;SDS011;22748;8.426;99.512;2022-08-20T02:12:23;6.82;;;3.03;;
36797;SDS011;22748;8.426;99.512;2022-08-20T02:14:55;6.40;;;3.30;;
36797;SDS011;22748;8.426;99.512;2022-08-20T02:17:27;8.73;;;3.38;;
36797;SDS011;22748;8.426;99.512;2022-08-20T02:19:59;9.18;;;4.32;;
36797;SDS011;22748;8.426;99.512;2022-08-20T02:22:34;6.53;;;3.60;;
36797;SDS011;22748;8.426;99.512;2022-08-20T02:25:09;9.23;;;3.88;;
36797;SDS011;22748;8.426;99.512;2022-08-20T02:27:43;4.15;;;2.70;;
36797;SDS011;22748;8.426;99.512;2022-08-20T02:30:18;4.00;;;2.75;;
36797;SDS011;22748;8.426;99.512;2022-08-20T02:32:49;9.63;;;3.70;;
36797;SDS011;22748;8.426;99.512;2022-08-20T02:35:20;10.88;;;3.13;;
36797;SDS011;22748;8.426;99.512;2022-08-20T02:37:51;7.03;;;2.75;;
36797;SDS011;22748;8.426;99.512;2022-08-20T02:40:24;5.90;;;2.90;;
36797;SDS011;22748;8.426;99.512;2022-08-20T02:42:56;4.43;;;2.75;;
36797;SDS011;22748;8.426;99.512;2022-08-20T02:45:35;7.95;;;3.45;;
36797;SDS011;22748;8.426;99.512;2022-08-20T02:48:10;4.93;;;3.03;;
36797;SDS011;22748;8.426;99.512;2022-08-20T02:50:48;5.10;;;3.72;;
36797;SDS011;22748;8.426;99.512;2022-08-20T02:53:20;6.30;;;4.20;;
36797;SDS011;22748;8.426;99.512;2022-08-20T02:55:54;8.55;;;3.97;;
36797;SDS011;22748;8.426;99.512;2022-08-20T02:58:27;5.38;;;4.13;;
36797;SDS011;22748;8.426;99.512;2022-08-20T03:00:59;7.75;;;3.60;;
36797;SDS011;22748;8.426;99.512;2022-08-20T03:03:32;4.93;;;3.15;;
36797;SDS011;22748;8.426;99.512;2022-08-20T03:08:33;7.93;;;3.33;;
36797;SDS011;22748;8.426;99.512;2022-08-20T03:11:05;6.45;;;3.05;;
36797;SDS011;22748;8.426;99.512;2022-08-20T03:13:37;8.60;;;2.60;;
36797;SDS011;22748;8.426;99.512;2022-08-20T03:16:09;8.90;;;5.25;;
36797;SDS011;22748;8.426;99.512;2022-08-20T03:18:39;11.88;;;5.57;;
36797;SDS011;22748;8.426;99.512;2022-08-20T03:21:13;8.32;;;3.75;;
36797;SDS011;22748;8.426;99.512;2022-08-20T03:23:44;6.15;;;4.10;;
36797;SDS011;22748;8.426;99.512;2022-08-20T03:26:16;6.03;;;3.30;;
36797;SDS011;22748;8.426;99.512;2022-08-20T03:28:45;10.05;;;3.80;;
36797;SDS011;22748;8.426;99.512;2022-08-20T03:31:20;9.50;;;3.58;;
36797;SDS011;22748;8.426;99.512;2022-08-20T03:33:51;9.88;;;4.57;;
36797;SDS011;22748;8.426;99.512;2022-08-20T03:36:21;7.03;;;3.08;;
36797;SDS011;22748;8.426;99.512;2022-08-20T03:38:52;7.15;;;3.20;;
36797;SDS011;22748;8.426;99.512;2022-08-20T03:43:54;3.70;;;2.33;;
36797;SDS011;22748;8.426;99.512;2022-08-20T03:46:28;4.57;;;2.67;;
36797;SDS011;22748;8.426;99.512;2022-08-20T03:48:59;4.40;;;2.33;;
36797;SDS011;22748;8.426;99.512;2022-08-20T03:51:31;6.30;;;2.60;;
36797;SDS011;22748;8.426;99.512;2022-08-20T03:54:03;4.22;;;2.35;;
36797;SDS011;22748;8.426;99.512;2022-08-20T03:56:36;19.67;;;15.43;;
36797;SDS011;22748;8.426;99.512;2022-08-20T03:59:08;3.28;;;2.55;;
36797;SDS011;22748;8.426;99.512;2022-08-20T04:01:40;5.47;;;2.42;;
36797;SDS011;22748;8.426;99.512;2022-08-20T04:04:11;5.15;;;3.08;;
36797;SDS011;22748;8.426;99.512;2022-08-20T04:06:43;10.67;;;3.87;;
36797;SDS011;22748;8.426;99.512;2022-08-20T04:09:15;6.22;;;2.92;;
36797;SDS011;22748;8.426;99.512;2022-08-20T04:11:47;6.45;;;2.70;;
36797;SDS011;22748;8.426;99.512;2022-08-20T04:16:57;3.83;;;2.00;;
36797;SDS011;22748;8.426;99.512;2022-08-20T04:19:33;4.00;;;2.00;;
36797;SDS011;22748;8.426;99.512;2022-08-20T04:22:05;6.65;;;2.47;;
36797;SDS011;22748;8.426;99.512;2022-08-20T04:24:37;5.72;;;2.38;;
36797;SDS011;22748;8.426;99.512;2022-08-20T04:27:09;8.63;;;5.43;;
36797;SDS011;22748;8.426;99.512;2022-08-20T04:29:41;7.60;;;2.97;;
36797;SDS011;22748;8.426;99.512;2022-08-20T04:34:47;5.20;;;3.95;;
36797;SDS011;22748;8.426;99.512;2022-08-20T04:37:22;2.83;;;2.13;;
36797;SDS011;22748;8.426;99.512;2022-08-20T04:39:53;5.57;;;2.15;;
36797;SDS011;22748;8.426;99.512;2022-08-20T04:42:36;14.40;;;4.68;;
36797;SDS011;22748;8.426;99.512;2022-08-20T04:45:07;8.88;;;7.03;;
36797;SDS011;22748;8.426;99.512;2022-08-20T04:47:40;6.75;;;5.03;;
36797;SDS011;22748;8.426;99.512;2022-08-20T04:50:12;6.38;;;2.92;;
36797;SDS011;22748;8.426;99.512;2022-08-20T04:52:44;9.60;;;5.82;;
36797;SDS011;22748;8.426;99.512;2022-08-20T04:55:17;5.93;;;2.63;;
36797;SDS011;22748;8.426;99.512;2022-08-20T04:57:48;5.47;;;2.88;;
36797;SDS011;22748;8.426;99.512;2022-08-20T05:00:20;3.70;;;1.90;;
36797;SDS011;22748;8.426;99.512;2022-08-20T05:02:52;5.53;;;2.45;;
36797;SDS011;22748;8.426;99.512;2022-08-20T05:05:23;11.20;;;5.80;;
36797;SDS011;22748;8.426;99.512;2022-08-20T05:07:53;7.88;;;4.20;;
36797;SDS011;22748;8.426;99.512;2022-08-20T05:10:24;5.13;;;2.05;;
36797;SDS011;22748;8.426;99.512;2022-08-20T05:12:53;9.48;;;3.35;;
36797;SDS011;22748;8.426;99.512;2022-08-20T05:15:25;11.37;;;6.83;;
36797;SDS011;22748;8.426;99.512;2022-08-20T05:18:01;20.83;;;12.55;;
36797;SDS011;22748;8.426;99.512;2022-08-20T05:20:33;11.73;;;5.97;;
36797;SDS011;22748;8.426;99.512;2022-08-20T05:23:05;4.55;;;2.60;;
36797;SDS011;22748;8.426;99.512;2022-08-20T05:25:37;4.63;;;2.08;;
36797;SDS011;22748;8.426;99.512;2022-08-20T05:28:15;3.83;;;2.35;;
36797;SDS011;22748;8.426;99.512;2022-08-20T05:30:49;4.78;;;2.60;;
36797;SDS011;22748;8.426;99.512;2022-08-20T05:33:23;4.50;;;1.85;;
36797;SDS011;22748;8.426;99.512;2022-08-20T05:35:56;5.60;;;1.83;;
36797;SDS011;22748;8.426;99.512;2022-08-20T05:38:28;4.40;;;1.55;;
36797;SDS011;22748;8.426;99.512;2022-08-20T05:41:03;3.72;;;1.45;;
36797;SDS011;22748;8.426;99.512;2022-08-20T05:43:35;3.13;;;1.35;;
36797;SDS011;22748;8.426;99.512;2022-08-20T05:46:08;7.85;;;1.80;;
36797;SDS011;22748;8.426;99.512;2022-08-20T05:48:43;7.75;;;1.35;;
36797;SDS011;22748;8.426;99.512;2022-08-20T05:51:15;6.28;;;1.17;;
36797;SDS011;22748;8.426;99.512;2022-08-20T05:53:47;2.38;;;1.42;;
36797;SDS011;22748;8.426;99.512;2022-08-20T05:56:19;4.10;;;1.38;;
36797;SDS011;22748;8.426;99.512;2022-08-20T05:58:49;8.70;;;5.37;;
36797;SDS011;22748;8.426;99.512;2022-08-20T06:01:21;7.18;;;2.42;;
36797;SDS011;22748;8.426;99.512;2022-08-20T06:03:53;7.38;;;2.53;;
36797;SDS011;22748;8.426;99.512;2022-08-20T06:06:35;4.35;;;1.70;;
36797;SDS011;22748;8.426;99.512;2022-08-20T06:11:36;7.53;;;1.73;;
36797;SDS011;22748;8.426;99.512;2022-08-20T06:14:07;5.70;;;1.50;;
36797;SDS011;22748;8.426;99.512;2022-08-20T06:16:38;2.35;;;1.15;;
36797;SDS011;22748;8.426;99.512;2022-08-20T06:19:11;2.45;;;1.13;;
36797;SDS011;22748;8.426;99.512;2022-08-20T06:21:42;2.75;;;1.20;;
36797;SDS011;22748;8.426;99.512;2022-08-20T06:24:14;2.13;;;1.10;;
36797;SDS011;22748;8.426;99.512;2022-08-20T06:26:47;4.05;;;1.20;;
36797;SDS011;22748;8.426;99.512;2022-08-20T06:29:24;4.03;;;1.30;;
36797;SDS011;22748;8.426;99.512;2022-08-20T06:31:58;3.92;;;1.65;;
36797;SDS011;22748;8.426;99.512;2022-08-20T06:34:30;2.58;;;0.95;;
36797;SDS011;22748;8.426;99.512;2022-08-20T06:37:13;1.98;;;1.02;;
36797;SDS011;22748;8.426;99.512;2022-08-20T06:39:45;2.38;;;0.70;;
36797;SDS011;22748;8.426;99.512;2022-08-20T06:42:17;3.67;;;1.27;;
36797;SDS011;22748;8.426;99.512;2022-08-20T06:44:50;3.33;;;0.98;;
36797;SDS011;22748;8.426;99.512;2022-08-20T06:47:25;3.65;;;1.20;;
36797;SDS011;22748;8.426;99.512;2022-08-20T06:49:59;3.80;;;1.10;;
36797;SDS011;22748;8.426;99.512;2022-08-20T06:52:30;5.00;;;1.35;;
36797;SDS011;22748;8.426;99.512;2022-08-20T06:55:01;3.38;;;1.10;;
36797;SDS011;22748;8.426;99.512;2022-08-20T06:57:33;1.52;;;0.80;;
36797;SDS011;22748;8.426;99.512;2022-08-20T07:00:07;3.13;;;0.93;;
36797;SDS011;22748;8.426;99.512;2022-08-20T07:02:40;4.45;;;1.83;;
36797;SDS011;22748;8.426;99.512;2022-08-20T07:05:13;3.50;;;1.20;;
36797;SDS011;22748;8.426;99.512;2022-08-20T07:07:46;2.53;;;1.23;;
36797;SDS011;22748;8.426;99.512;2022-08-20T07:10:21;3.47;;;1.35;;
36797;SDS011;22748;8.426;99.512;2022-08-20T07:12:52;5.15;;;1.85;;
36797;SDS011;22748;8.426;99.512;2022-08-20T07:15:22;4.93;;;2.10;;
36797;SDS011;22748;8.426;99.512;2022-08-20T07:17:56;4.70;;;1.58;;
36797;SDS011;22748;8.426;99.512;2022-08-20T07:20:34;8.10;;;2.05;;
36797;SDS011;22748;8.426;99.512;2022-08-20T07:23:07;3.67;;;1.55;;
36797;SDS011;22748;8.426;99.512;2022-08-20T07:25:39;3.97;;;2.25;;
36797;SDS011;22748;8.426;99.512;2022-08-20T07:28:13;2.40;;;1.70;;
36797;SDS011;22748;8.426;99.512;2022-08-20T07:30:50;1.60;;;1.10;;
36797;SDS011;22748;8.426;99.512;2022-08-20T07:33:34;3.90;;;1.35;;
36797;SDS011;22748;8.426;99.512;2022-08-20T07:36:09;3.03;;;1.15;;
36797;SDS011;22748;8.426;99.512;2022-08-20T07:38:40;3.92;;;1.08;;
36797;SDS011;22748;8.426;99.512;2022-08-20T07:41:12;3.72;;;1.15;;
36797;SDS011;22748;8.426;99.512;2022-08-20T07:43:42;3.40;;;1.50;;
36797;SDS011;22748;8.426;99.512;2022-08-20T07:46:13;4.00;;;1.20;;
36797;SDS011;22748;8.426;99.512;2022-08-20T07:48:45;1.92;;;0.80;;
36797;SDS011;22748;8.426;99.512;2022-08-20T07:51:20;1.77;;;0.98;;
36797;SDS011;22748;8.426;99.512;2022-08-20T07:53:51;2.65;;;0.95;;
36797;SDS011;22748;8.426;99.512;2022-08-20T07:56:23;3.08;;;0.90;;
36797;SDS011;22748;8.426;99.512;2022-08-20T07:58:54;1.88;;;1.00;;
36797;SDS011;22748;8.426;99.512;2022-08-20T08:01:26;3.28;;;1.08;;
36797;SDS011;22748;8.426;99.512;2022-08-20T08:03:59;8.50;;;1.83;;
36797;SDS011;22748;8.426;99.512;2022-08-20T08:06:31;4.13;;;0.95;;
36797;SDS011;22748;8.426;99.512;2022-08-20T08:09:03;3.10;;;0.85;;
36797;SDS011;22748;8.426;99.512;2022-08-20T08:11:37;1.67;;;0.80;;
36797;SDS011;22748;8.426;99.512;2022-08-20T08:14:11;5.15;;;1.00;;
36797;SDS011;22748;8.426;99.512;2022-08-20T08:16:44;3.63;;;1.00;;
36797;SDS011;22748;8.426;99.512;2022-08-20T08:19:15;2.47;;;0.90;;
36797;SDS011;22748;8.426;99.512;2022-08-20T08:21:51;22.20;;;3.45;;
36797;SDS011;22748;8.426;99.512;2022-08-20T08:24:25;1.92;;;1.05;;
36797;SDS011;22748;8.426;99.512;2022-08-20T08:26:56;5.18;;;1.02;;
36797;SDS011;22748;8.426;99.512;2022-08-20T08:29:28;4.32;;;1.10;;
36797;SDS011;22748;8.426;99.512;2022-08-20T08:32:01;6.47;;;1.30;;
36797;SDS011;22748;8.426;99.512;2022-08-20T08:37:05;2.38;;;1.10;;
36797;SDS011;22748;8.426;99.512;2022-08-20T08:39:36;3.15;;;1.38;;
36797;SDS011;22748;8.426;99.512;2022-08-20T08:42:15;2.38;;;0.90;;
36797;SDS011;22748;8.426;99.512;2022-08-20T08:44:53;5.25;;;1.10;;
36797;SDS011;22748;8.426;99.512;2022-08-20T08:47:25;2.17;;;1.25;;
36797;SDS011;22748;8.426;99.512;2022-08-20T08:49:57;8.95;;;2.03;;
36797;SDS011;22748;8.426;99.512;2022-08-20T08:52:33;5.45;;;1.38;;
36797;SDS011;22748;8.426;99.512;2022-08-20T08:55:10;2.72;;;1.20;;
36797;SDS011;22748;8.426;99.512;2022-08-20T08:57:50;3.50;;;1.40;;
36797;SDS011;22748;8.426;99.512;2022-08-20T09:00:24;3.65;;;1.48;;
36797;SDS011;22748;8.426;99.512;2022-08-20T09:05:30;3.75;;;1.95;;
36797;SDS011;22748;8.426;99.512;2022-08-20T09:08:12;3.85;;;1.67;;
36797;SDS011;22748;8.426;99.512;2022-08-20T09:10:46;8.90;;;2.03;;
36797;SDS011;22748;8.426;99.512;2022-08-20T09:13:16;8.32;;;2.20;;
36797;SDS011;22748;8.426;99.512;2022-08-20T09:15:48;8.23;;;2.13;;
36797;SDS011;22748;8.426;99.512;2022-08-20T09:18:20;6.75;;;2.92;;
36797;SDS011;22748;8.426;99.512;2022-08-20T09:20:50;6.88;;;2.65;;
36797;SDS011;22748;8.426;99.512;2022-08-20T09:23:23;6.30;;;2.22;;
36797;SDS011;22748;8.426;99.512;2022-08-20T09:25:54;5.40;;;2.22;;
36797;SDS011;22748;8.426;99.512;2022-08-20T09:28:24;6.68;;;2.05;;
36797;SDS011;22748;8.426;99.512;2022-08-20T09:30:55;5.32;;;1.67;;
36797;SDS011;22748;8.426;99.512;2022-08-20T09:33:28;6.03;;;1.90;;
36797;SDS011;22748;8.426;99.512;2022-08-20T09:36:01;4.70;;;2.20;;
36797;SDS011;22748;8.426;99.512;2022-08-20T09:38:33;6.90;;;2.33;;
36797;SDS011;22748;8.426;99.512;2022-08-20T09:41:03;9.73;;;3.60;;
36797;SDS011;22748;8.426;99.512;2022-08-20T09:43:34;6.07;;;2.70;;
36797;SDS011;22748;8.426;99.512;2022-08-20T09:46:07;4.95;;;2.20;;
36797;SDS011;22748;8.426;99.512;2022-08-20T09:48:38;8.20;;;2.60;;
36797;SDS011;22748;8.426;99.512;2022-08-20T09:53:40;6.25;;;1.83;;
36797;SDS011;22748;8.426;99.512;2022-08-20T09:56:12;3.60;;;1.98;;
36797;SDS011;22748;8.426;99.512;2022-08-20T09:58:46;9.27;;;2.72;;
36797;SDS011;22748;8.426;99.512;2022-08-20T10:01:21;10.88;;;4.28;;
36797;SDS011;22748;8.426;99.512;2022-08-20T10:03:51;7.85;;;2.70;;
36797;SDS011;22748;8.426;99.512;2022-08-20T10:11:27;7.07;;;4.15;;
36797;SDS011;22748;8.426;99.512;2022-08-20T10:13:59;9.23;;;3.38;;
36797;SDS011;22748;8.426;99.512;2022-08-20T10:16:31;3.67;;;2.15;;
36797;SDS011;22748;8.426;99.512;2022-08-20T10:19:02;5.45;;;2.00;;
36797;SDS011;22748;8.426;99.512;2022-08-20T10:21:34;3.38;;;2.13;;
36797;SDS011;22748;8.426;99.512;2022-08-20T10:24:08;5.95;;;2.38;;
36797;SDS011;22748;8.426;99.512;2022-08-20T10:26:40;5.43;;;2.38;;
36797;SDS011;22748;8.426;99.512;2022-08-20T10:29:12;13.35;;;3.15;;
36797;SDS011;22748;8.426;99.512;2022-08-20T10:31:45;24.55;;;12.68;;
36797;SDS011;22748;8.426;99.512;2022-08-20T10:34:18;14.25;;;7.88;;
36797;SDS011;22748;8.426;99.512;2022-08-20T10:36:48;16.60;;;10.07;;
36797;SDS011;22748;8.426;99.512;2022-08-20T10:39:21;20.15;;;11.90;;
36797;SDS011;22748;8.426;99.512;2022-08-20T10:41:52;13.50;;;8.15;;
36797;SDS011;22748;8.426;99.512;2022-08-20T10:44:22;14.85;;;8.00;;
36797;SDS011;22748;8.426;99.512;2022-08-20T10:46:52;8.32;;;5.95;;
36797;SDS011;22748;8.426;99.512;2022-08-20T10:49:24;11.25;;;5.50;;
36797;SDS011;22748;8.426;99.512;2022-08-20T10:51:54;10.88;;;7.55;;
36797;SDS011;22748;8.426;99.512;2022-08-20T10:54:28;16.77;;;11.15;;
36797;SDS011;22748;8.426;99.512;2022-08-20T10:57:00;17.10;;;10.23;;
36797;SDS011;22748;8.426;99.512;2022-08-20T10:59:30;28.73;;;18.30;;
36797;SDS011;22748;8.426;99.512;2022-08-20T11:02:06;35.92;;;20.95;;
36797;SDS011;22748;8.426;99.512;2022-08-20T11:04:37;30.90;;;21.25;;
36797;SDS011;22748;8.426;99.512;2022-08-20T11:07:10;25.02;;;17.02;;
36797;SDS011;22748;8.426;99.512;2022-08-20T11:09:47;29.85;;;18.98;;
36797;SDS011;22748;8.426;99.512;2022-08-20T11:12:19;24.27;;;13.40;;
36797;SDS011;22748;8.426;99.512;2022-08-20T11:14:50;21.00;;;10.15;;
36797;SDS011;22748;8.426;99.512;2022-08-20T11:17:21;17.65;;;8.85;;
36797;SDS011;22748;8.426;99.512;2022-08-20T11:22:21;23.02;;;8.70;;
36797;SDS011;22748;8.426;99.512;2022-08-20T11:24:53;14.63;;;9.07;;
36797;SDS011;22748;8.426;99.512;2022-08-20T11:27:24;11.52;;;8.48;;
36797;SDS011;22748;8.426;99.512;2022-08-20T11:29:56;16.05;;;8.43;;
36797;SDS011;22748;8.426;99.512;2022-08-20T11:32:26;10.25;;;6.80;;
36797;SDS011;22748;8.426;99.512;2022-08-20T11:34:56;17.88;;;7.95;;
36797;SDS011;22748;8.426;99.512;2022-08-20T11:37:28;16.00;;;9.77;;
36797;SDS011;22748;8.426;99.512;2022-08-20T11:40:00;23.45;;;12.00;;
36797;SDS011;22748;8.426;99.512;2022-08-20T11:42:32;15.45;;;11.00;;
36797;SDS011;22748;8.426;99.512;2022-08-20T11:45:04;20.90;;;14.13;;
36797;SDS011;22748;8.426;99.512;2022-08-20T11:47:37;12.05;;;9.10;;
36797;SDS011;22748;8.426;99.512;2022-08-20T11:50:11;11.65;;;8.25;;
36797;SDS011;22748;8.426;99.512;2022-08-20T11:52:45;17.30;;;8.95;;
36797;SDS011;22748;8.426;99.512;2022-08-20T11:55:16;11.40;;;7.45;;
36797;SDS011;22748;8.426;99.512;2022-08-20T11:57:48;10.25;;;7.45;;
36797;SDS011;22748;8.426;99.512;2022-08-20T12:00:19;15.05;;;7.88;;
36797;SDS011;22748;8.426;99.512;2022-08-20T12:02:52;13.55;;;8.55;;
36797;SDS011;22748;8.426;99.512;2022-08-20T12:05:24;13.60;;;8.40;;
36797;SDS011;22748;8.426;99.512;2022-08-20T12:07:58;10.82;;;8.40;;
36797;SDS011;22748;8.426;99.512;2022-08-20T12:10:31;11.85;;;8.38;;
36797;SDS011;22748;8.426;99.512;2022-08-20T12:13:03;19.23;;;10.20;;
36797;SDS011;22748;8.426;99.512;2022-08-20T12:15:35;22.38;;;14.70;;
36797;SDS011;22748;8.426;99.512;2022-08-20T12:18:05;24.83;;;17.83;;
36797;SDS011;22748;8.426;99.512;2022-08-20T12:20:36;29.98;;;17.98;;
36797;SDS011;22748;8.426;99.512;2022-08-20T12:23:07;27.17;;;17.40;;
36797;SDS011;22748;8.426;99.512;2022-08-20T12:25:39;30.83;;;15.07;;
36797;SDS011;22748;8.426;99.512;2022-08-20T12:28:11;15.55;;;9.20;;
36797;SDS011;22748;8.426;99.512;2022-08-20T12:30:41;16.50;;;8.27;;
36797;SDS011;22748;8.426;99.512;2022-08-20T12:33:13;19.03;;;10.83;;
36797;SDS011;22748;8.426;99.512;2022-08-20T12:35:43;16.80;;;8.70;;
36797;SDS011;22748;8.426;99.512;2022-08-20T12:38:15;16.50;;;10.50;;
36797;SDS011;22748;8.426;99.512;2022-08-20T12:40:49;18.75;;;13.65;;
36797;SDS011;22748;8.426;99.512;2022-08-20T12:43:19;24.40;;;13.73;;
36797;SDS011;22748;8.426;99.512;2022-08-20T12:45:49;17.85;;;12.25;;
36797;SDS011;22748;8.426;99.512;2022-08-20T12:48:19;21.23;;;13.60;;
36797;SDS011;22748;8.426;99.512;2022-08-20T12:50:51;19.70;;;14.43;;
36797;SDS011;22748;8.426;99.512;2022-08-20T12:53:22;22.33;;;14.77;;
36797;SDS011;22748;8.426;99.512;2022-08-20T12:55:54;19.75;;;13.40;;
36797;SDS011;22748;8.426;99.512;2022-08-20T12:58:25;19.30;;;13.02;;
36797;SDS011;22748;8.426;99.512;2022-08-20T13:00:57;17.02;;;11.27;;
36797;SDS011;22748;8.426;99.512;2022-08-20T13:03:28;16.27;;;10.88;;
36797;SDS011;22748;8.426;99.512;2022-08-20T13:06:00;17.92;;;12.13;;
36797;SDS011;22748;8.426;99.512;2022-08-20T13:08:30;27.13;;;14.05;;
36797;SDS011;22748;8.426;99.512;2022-08-20T13:11:01;36.80;;;16.67;;
36797;SDS011;22748;8.426;99.512;2022-08-20T13:13:31;27.38;;;15.23;;
36797;SDS011;22748;8.426;99.512;2022-08-20T13:16:03;29.23;;;16.20;;
36797;SDS011;22748;8.426;99.512;2022-08-20T13:18:35;29.25;;;17.27;;
36797;SDS011;22748;8.426;99.512;2022-08-20T13:21:08;30.30;;;19.08;;
36797;SDS011;22748;8.426;99.512;2022-08-20T13:23:39;32.42;;;20.40;;
36797;SDS011;22748;8.426;99.512;2022-08-20T13:26:14;42.58;;;27.13;;
36797;SDS011;22748;8.426;99.512;2022-08-20T13:28:46;42.92;;;28.20;;
36797;SDS011;22748;8.426;99.512;2022-08-20T13:31:16;47.78;;;31.45;;
36797;SDS011;22748;8.426;99.512;2022-08-20T13:33:46;42.23;;;27.07;;
36797;SDS011;22748;8.426;99.512;2022-08-20T13:36:18;30.65;;;20.92;;
36797;SDS011;22748;8.426;99.512;2022-08-20T13:38:48;24.08;;;17.23;;
36797;SDS011;22748;8.426;99.512;2022-08-20T13:41:21;23.75;;;15.38;;
36797;SDS011;22748;8.426;99.512;2022-08-20T13:43:52;15.05;;;11.20;;
36797;SDS011;22748;8.426;99.512;2022-08-20T13:46:25;16.02;;;10.90;;
36797;SDS011;22748;8.426;99.512;2022-08-20T13:48:55;15.20;;;10.13;;
36797;SDS011;22748;8.426;99.512;2022-08-20T13:51:28;31.38;;;21.23;;
36797;SDS011;22748;8.426;99.512;2022-08-20T13:53:59;18.95;;;13.73;;
36797;SDS011;22748;8.426;99.512;2022-08-20T13:56:31;16.85;;;11.25;;
36797;SDS011;22748;8.426;99.512;2022-08-20T13:59:00;15.20;;;9.80;;
36797;SDS011;22748;8.426;99.512;2022-08-20T14:01:30;12.98;;;8.40;;
36797;SDS011;22748;8.426;99.512;2022-08-20T14:06:30;15.20;;;8.23;;
36797;SDS011;22748;8.426;99.512;2022-08-20T14:09:00;17.70;;;8.30;;
36797;SDS011;22748;8.426;99.512;2022-08-20T14:11:31;15.70;;;7.75;;
36797;SDS011;22748;8.426;99.512;2022-08-20T14:14:01;16.73;;;8.27;;
36797;SDS011;22748;8.426;99.512;2022-08-20T14:19:02;20.13;;;8.95;;
36797;SDS011;22748;8.426;99.512;2022-08-20T14:21:34;15.65;;;9.00;;
36797;SDS011;22748;8.426;99.512;2022-08-20T14:24:04;14.55;;;9.93;;
36797;SDS011;22748;8.426;99.512;2022-08-20T14:26:35;17.47;;;13.87;;
36797;SDS011;22748;8.426;99.512;2022-08-20T14:31:34;20.33;;;15.45;;
36797;SDS011;22748;8.426;99.512;2022-08-20T14:34:07;22.75;;;15.73;;
36797;SDS011;22748;8.426;99.512;2022-08-20T14:36:36;23.23;;;15.65;;
36797;SDS011;22748;8.426;99.512;2022-08-20T14:39:07;23.83;;;17.15;;
36797;SDS011;22748;8.426;99.512;2022-08-20T14:44:08;22.50;;;13.85;;
36797;SDS011;22748;8.426;99.512;2022-08-20T14:46:38;22.88;;;14.88;;
36797;SDS011;22748;8.426;99.512;2022-08-20T14:49:08;18.98;;;12.98;;
36797;SDS011;22748;8.426;99.512;2022-08-20T14:51:37;28.75;;;19.75;;
36797;SDS011;22748;8.426;99.512;2022-08-20T14:54:09;24.38;;;19.40;;
36797;SDS011;22748;8.426;99.512;2022-08-20T14:56:42;29.88;;;21.33;;
36797;SDS011;22748;8.426;99.512;2022-08-20T14:59:11;28.15;;;20.48;;
36797;SDS011;22748;8.426;99.512;2022-08-20T15:01:42;29.33;;;21.08;;
36797;SDS011;22748;8.426;99.512;2022-08-20T15:04:13;26.05;;;19.05;;
36797;SDS011;22748;8.426;99.512;2022-08-20T15:06:47;26.52;;;18.60;;
36797;SDS011;22748;8.426;99.512;2022-08-20T15:09:17;30.00;;;21.48;;
36797;SDS011;22748;8.426;99.512;2022-08-20T15:11:49;31.55;;;21.45;;
36797;SDS011;22748;8.426;99.512;2022-08-20T15:14:20;28.08;;;19.63;;
36797;SDS011;22748;8.426;99.512;2022-08-20T15:16:53;25.55;;;17.77;;
36797;SDS011;22748;8.426;99.512;2022-08-20T15:19:24;23.83;;;17.73;;
36797;SDS011;22748;8.426;99.512;2022-08-20T15:21:54;22.30;;;16.52;;
36797;SDS011;22748;8.426;99.512;2022-08-20T15:24:25;21.55;;;15.27;;
36797;SDS011;22748;8.426;99.512;2022-08-20T15:26:59;20.15;;;15.15;;
36797;SDS011;22748;8.426;99.512;2022-08-20T15:29:41;22.88;;;15.60;;
36797;SDS011;22748;8.426;99.512;2022-08-20T15:32:13;18.42;;;14.52;;
36797;SDS011;22748;8.426;99.512;2022-08-20T15:34:45;19.23;;;15.15;;
36797;SDS011;22748;8.426;99.512;2022-08-20T15:37:19;20.55;;;13.95;;
36797;SDS011;22748;8.426;99.512;2022-08-20T15:39:51;18.48;;;14.43;;
36797;SDS011;22748;8.426;99.512;2022-08-20T15:42:24;16.05;;;12.57;;
36797;SDS011;22748;8.426;99.512;2022-08-20T15:44:56;18.23;;;12.85;;
36797;SDS011;22748;8.426;99.512;2022-08-20T15:50:00;33.65;;;22.83;;
36797;SDS011;22748;8.426;99.512;2022-08-20T15:52:35;33.70;;;21.73;;
36797;SDS011;22748;8.426;99.512;2022-08-20T15:55:08;28.67;;;19.15;;